sensor_id;sensor_type;location;lat;lon;timestamp;temperature;humidity
463;DHT22;218;51.902;9.542;2023-07-20T00:05:42;21.40;1.00
463;DHT22;218;51.902;9.542;2023-07-20T00:10:37;21.20;1.00
463;DHT22;218;51.902;9.542;2023-07-20T00:13:05;21.20;1.00
463;DHT22;218;51.902;9.542;2023-07-20T00:15:32;21.20;1.00
463;DHT22;218;51.902;9.542;2023-07-20T00:17:59;21.30;1.00
463;DHT22;218;51.902;9.542;2023-07-20T00:20:26;21.20;1.00
463;DHT22;218;51.902;9.542;2023-07-20T00:30:18;21.20;1.00
463;DHT22;218;51.902;9.542;2023-07-20T00:35:13;21.20;1.00
463;DHT22;218;51.902;9.542;2023-07-20T01:04:47;21.20;1.00
463;DHT22;218;51.902;9.542;2023-07-20T01:07:20;21.20;1.00
463;DHT22;218;51.902;9.542;2023-07-20T01:09:54;21.10;1.00
463;DHT22;218;51.902;9.542;2023-07-20T01:14:55;21.20;1.00
463;DHT22;218;51.902;9.542;2023-07-20T01:19:51;21.20;1.00
463;DHT22;218;51.902;9.542;2023-07-20T01:22:32;21.20;1.00
463;DHT22;218;51.902;9.542;2023-07-20T01:25:21;21.20;1.00
463;DHT22;218;51.902;9.542;2023-07-20T01:28:06;21.20;1.00
463;DHT22;218;51.902;9.542;2023-07-20T01:30:46;21.10;1.00
463;DHT22;218;51.902;9.542;2023-07-20T01:33:19;21.20;1.00
463;DHT22;218;51.902;9.542;2023-07-20T01:35:52;21.20;1.00
463;DHT22;218;51.902;9.542;2023-07-20T01:45:42;21.10;1.00
463;DHT22;218;51.902;9.542;2023-07-20T01:48:08;21.10;1.00
463;DHT22;218;51.902;9.542;2023-07-20T01:50:37;21.10;1.00
463;DHT22;218;51.902;9.542;2023-07-20T01:57:58;21.10;1.00
463;DHT22;218;51.902;9.542;2023-07-20T02:00:27;21.20;1.00
463;DHT22;218;51.902;9.542;2023-07-20T02:05:21;21.10;1.00
463;DHT22;218;51.902;9.542;2023-07-20T02:07:49;21.10;1.00
463;DHT22;218;51.902;9.542;2023-07-20T02:10:16;21.10;1.00
463;DHT22;218;51.902;9.542;2023-07-20T02:12:43;21.00;1.00
463;DHT22;218;51.902;9.542;2023-07-20T02:17:39;21.10;1.00
463;DHT22;218;51.902;9.542;2023-07-20T02:20:07;21.10;1.00
463;DHT22;218;51.902;9.542;2023-07-20T02:22:35;21.10;1.00
463;DHT22;218;51.902;9.542;2023-07-20T02:25:05;21.10;1.00
463;DHT22;218;51.902;9.542;2023-07-20T02:37:21;21.10;1.00
463;DHT22;218;51.902;9.542;2023-07-20T02:39:48;21.00;1.00
463;DHT22;218;51.902;9.542;2023-07-20T02:42:16;21.00;1.00
463;DHT22;218;51.902;9.542;2023-07-20T02:44:44;21.00;1.00
463;DHT22;218;51.902;9.542;2023-07-20T02:47:12;21.00;1.00
463;DHT22;218;51.902;9.542;2023-07-20T02:52:06;21.00;1.00
463;DHT22;218;51.902;9.542;2023-07-20T02:54:33;21.10;1.00
463;DHT22;218;51.902;9.542;2023-07-20T02:57:00;21.10;1.00
463;DHT22;218;51.902;9.542;2023-07-20T03:01:56;21.00;1.00
463;DHT22;218;51.902;9.542;2023-07-20T03:04:25;20.90;1.00
463;DHT22;218;51.902;9.542;2023-07-20T03:11:48;20.90;1.00
463;DHT22;218;51.902;9.542;2023-07-20T03:14:15;20.90;1.00
463;DHT22;218;51.902;9.542;2023-07-20T03:26:35;20.90;1.00
463;DHT22;218;51.902;9.542;2023-07-20T03:29:03;20.80;1.00
463;DHT22;218;51.902;9.542;2023-07-20T03:36:26;20.80;1.00
463;DHT22;218;51.902;9.542;2023-07-20T03:38:53;20.80;1.00
463;DHT22;218;51.902;9.542;2023-07-20T03:46:14;20.90;1.00
463;DHT22;218;51.902;9.542;2023-07-20T03:53:38;20.70;1.00
463;DHT22;218;51.902;9.542;2023-07-20T03:56:05;20.80;1.00
463;DHT22;218;51.902;9.542;2023-07-20T03:58:32;20.80;1.00
463;DHT22;218;51.902;9.542;2023-07-20T04:10:51;20.80;1.00
463;DHT22;218;51.902;9.542;2023-07-20T04:23:07;20.80;1.00
463;DHT22;218;51.902;9.542;2023-07-20T04:28:06;20.70;1.00
463;DHT22;218;51.902;9.542;2023-07-20T04:33:03;20.80;1.00
463;DHT22;218;51.902;9.542;2023-07-20T04:43:09;20.90;1.00
463;DHT22;218;51.902;9.542;2023-07-20T04:45:36;20.80;1.00
463;DHT22;218;51.902;9.542;2023-07-20T04:48:06;21.00;1.00
463;DHT22;218;51.902;9.542;2023-07-20T04:50:33;20.90;1.00
463;DHT22;218;51.902;9.542;2023-07-20T05:00:24;20.90;1.00
463;DHT22;218;51.902;9.542;2023-07-20T05:02:51;20.90;1.00
463;DHT22;218;51.902;9.542;2023-07-20T05:10:13;21.00;1.00
463;DHT22;218;51.902;9.542;2023-07-20T05:20:05;20.80;1.00
463;DHT22;218;51.902;9.542;2023-07-20T05:22:35;20.80;1.00
463;DHT22;218;51.902;9.542;2023-07-20T05:32:29;20.50;1.00
463;DHT22;218;51.902;9.542;2023-07-20T05:52:11;20.30;1.00
463;DHT22;218;51.902;9.542;2023-07-20T06:04:27;20.40;1.00
463;DHT22;218;51.902;9.542;2023-07-20T06:56:07;20.30;1.00
463;DHT22;218;51.902;9.542;2023-07-20T08:00:14;21.10;1.00
463;DHT22;218;51.902;9.542;2023-07-20T08:10:08;21.40;1.00
463;DHT22;218;51.902;9.542;2023-07-20T08:15:03;21.70;1.00
463;DHT22;218;51.902;9.542;2023-07-20T08:19:58;21.90;1.00
463;DHT22;218;51.902;9.542;2023-07-20T08:22:25;22.10;1.00
463;DHT22;218;51.902;9.542;2023-07-20T08:24:53;22.20;1.00
463;DHT22;218;51.902;9.542;2023-07-20T08:32:15;22.40;1.00
463;DHT22;218;51.902;9.542;2023-07-20T08:37:09;22.60;1.00
463;DHT22;218;51.902;9.542;2023-07-20T08:42:06;22.80;1.00
463;DHT22;218;51.902;9.542;2023-07-20T08:44:33;22.80;1.00
463;DHT22;218;51.902;9.542;2023-07-20T08:47:02;22.90;1.00
463;DHT22;218;51.902;9.542;2023-07-20T08:49:31;22.90;1.00
463;DHT22;218;51.902;9.542;2023-07-20T08:51:59;23.00;1.00
463;DHT22;218;51.902;9.542;2023-07-20T08:54:30;23.30;1.00
463;DHT22;218;51.902;9.542;2023-07-20T08:57:00;23.20;1.00
463;DHT22;218;51.902;9.542;2023-07-20T08:59:30;23.40;1.00
463;DHT22;218;51.902;9.542;2023-07-20T09:01:58;23.30;1.00
463;DHT22;218;51.902;9.542;2023-07-20T09:04:25;23.50;1.00
463;DHT22;218;51.902;9.542;2023-07-20T09:06:52;23.60;1.00
463;DHT22;218;51.902;9.542;2023-07-20T09:09:19;23.70;1.00
463;DHT22;218;51.902;9.542;2023-07-20T09:11:47;23.70;1.00
463;DHT22;218;51.902;9.542;2023-07-20T09:14:14;23.80;1.00
463;DHT22;218;51.902;9.542;2023-07-20T09:16:50;23.90;1.00
463;DHT22;218;51.902;9.542;2023-07-20T09:19:17;23.90;1.00
463;DHT22;218;51.902;9.542;2023-07-20T09:21:45;24.00;1.00
463;DHT22;218;51.902;9.542;2023-07-20T09:24:13;24.10;1.00
463;DHT22;218;51.902;9.542;2023-07-20T09:26:41;24.20;1.00
463;DHT22;218;51.902;9.542;2023-07-20T09:29:09;24.20;1.00
463;DHT22;218;51.902;9.542;2023-07-20T09:31:36;24.30;1.00
463;DHT22;218;51.902;9.542;2023-07-20T09:34:05;24.40;1.00
463;DHT22;218;51.902;9.542;2023-07-20T09:36:33;24.50;1.00
463;DHT22;218;51.902;9.542;2023-07-20T09:39:02;24.60;1.00
463;DHT22;218;51.902;9.542;2023-07-20T09:41:30;24.60;1.00
463;DHT22;218;51.902;9.542;2023-07-20T09:43:57;24.60;1.00
463;DHT22;218;51.902;9.542;2023-07-20T09:46:24;24.70;1.00
463;DHT22;218;51.902;9.542;2023-07-20T09:48:52;24.70;1.00
463;DHT22;218;51.902;9.542;2023-07-20T09:51:22;24.80;1.00
463;DHT22;218;51.902;9.542;2023-07-20T09:53:49;24.90;1.00
463;DHT22;218;51.902;9.542;2023-07-20T09:56:21;24.90;1.00
463;DHT22;218;51.902;9.542;2023-07-20T09:58:48;25.00;1.00
463;DHT22;218;51.902;9.542;2023-07-20T10:01:20;25.10;1.00
463;DHT22;218;51.902;9.542;2023-07-20T10:03:49;25.10;1.00
463;DHT22;218;51.902;9.542;2023-07-20T10:06:23;25.20;1.00
463;DHT22;218;51.902;9.542;2023-07-20T10:08:53;25.30;1.00
463;DHT22;218;51.902;9.542;2023-07-20T10:11:21;25.30;1.00
463;DHT22;218;51.902;9.542;2023-07-20T10:13:53;25.30;1.00
463;DHT22;218;51.902;9.542;2023-07-20T10:16:27;25.30;1.00
463;DHT22;218;51.902;9.542;2023-07-20T10:19:02;25.30;1.00
463;DHT22;218;51.902;9.542;2023-07-20T10:21:33;25.30;1.00
463;DHT22;218;51.902;9.542;2023-07-20T10:24:03;25.30;1.00
463;DHT22;218;51.902;9.542;2023-07-20T10:26:30;25.20;1.00
463;DHT22;218;51.902;9.542;2023-07-20T10:28:58;25.20;1.00
463;DHT22;218;51.902;9.542;2023-07-20T10:31:26;25.20;1.00
463;DHT22;218;51.902;9.542;2023-07-20T10:33:55;25.20;1.00
463;DHT22;218;51.902;9.542;2023-07-20T10:36:24;25.20;1.00
463;DHT22;218;51.902;9.542;2023-07-20T10:38:55;25.30;1.00
463;DHT22;218;51.902;9.542;2023-07-20T10:41:28;25.30;1.00
463;DHT22;218;51.902;9.542;2023-07-20T10:43:58;25.40;1.00
463;DHT22;218;51.902;9.542;2023-07-20T10:46:35;25.40;1.00
463;DHT22;218;51.902;9.542;2023-07-20T10:49:09;25.40;1.00
463;DHT22;218;51.902;9.542;2023-07-20T10:51:39;25.50;1.00
463;DHT22;218;51.902;9.542;2023-07-20T10:54:11;25.50;1.00
463;DHT22;218;51.902;9.542;2023-07-20T10:56:57;25.60;1.00
463;DHT22;218;51.902;9.542;2023-07-20T10:59:37;25.60;1.00
463;DHT22;218;51.902;9.542;2023-07-20T11:02:06;25.60;1.00
463;DHT22;218;51.902;9.542;2023-07-20T11:04:41;25.70;1.00
463;DHT22;218;51.902;9.542;2023-07-20T11:07:08;25.70;1.00
463;DHT22;218;51.902;9.542;2023-07-20T11:09:37;25.70;1.00
463;DHT22;218;51.902;9.542;2023-07-20T11:12:12;25.80;1.00
463;DHT22;218;51.902;9.542;2023-07-20T11:14:40;25.90;1.00
463;DHT22;218;51.902;9.542;2023-07-20T11:17:11;25.90;1.00
463;DHT22;218;51.902;9.542;2023-07-20T11:19:39;26.00;1.00
463;DHT22;218;51.902;9.542;2023-07-20T11:22:06;26.10;1.00
463;DHT22;218;51.902;9.542;2023-07-20T11:24:38;26.10;1.00
463;DHT22;218;51.902;9.542;2023-07-20T11:27:06;26.10;1.00
463;DHT22;218;51.902;9.542;2023-07-20T11:29:33;26.20;1.00
463;DHT22;218;51.902;9.542;2023-07-20T11:32:00;26.30;1.00
463;DHT22;218;51.902;9.542;2023-07-20T11:34:30;26.30;1.00
463;DHT22;218;51.902;9.542;2023-07-20T11:36:57;26.30;1.00
463;DHT22;218;51.902;9.542;2023-07-20T11:39:25;26.40;1.00
463;DHT22;218;51.902;9.542;2023-07-20T11:41:55;26.40;1.00
463;DHT22;218;51.902;9.542;2023-07-20T11:44:23;26.40;1.00
463;DHT22;218;51.902;9.542;2023-07-20T11:46:59;26.40;1.00
463;DHT22;218;51.902;9.542;2023-07-20T11:49:27;26.40;1.00
463;DHT22;218;51.902;9.542;2023-07-20T11:51:57;26.40;1.00
463;DHT22;218;51.902;9.542;2023-07-20T11:54:24;26.50;1.00
463;DHT22;218;51.902;9.542;2023-07-20T11:56:55;26.60;1.00
463;DHT22;218;51.902;9.542;2023-07-20T11:59:22;26.60;1.00
463;DHT22;218;51.902;9.542;2023-07-20T12:01:49;26.70;1.00
463;DHT22;218;51.902;9.542;2023-07-20T12:04:16;26.70;1.00
463;DHT22;218;51.902;9.542;2023-07-20T12:06:45;26.70;1.00
463;DHT22;218;51.902;9.542;2023-07-20T12:09:14;26.80;1.00
463;DHT22;218;51.902;9.542;2023-07-20T12:11:43;26.70;1.00
463;DHT22;218;51.902;9.542;2023-07-20T12:14:12;26.70;1.00
463;DHT22;218;51.902;9.542;2023-07-20T12:16:39;26.70;1.00
463;DHT22;218;51.902;9.542;2023-07-20T12:19:10;26.70;1.00
463;DHT22;218;51.902;9.542;2023-07-20T12:21:38;26.70;1.00
463;DHT22;218;51.902;9.542;2023-07-20T12:24:06;26.70;1.00
463;DHT22;218;51.902;9.542;2023-07-20T12:26:34;26.80;1.00
463;DHT22;218;51.902;9.542;2023-07-20T12:29:01;26.80;1.00
463;DHT22;218;51.902;9.542;2023-07-20T12:31:34;26.90;1.00
463;DHT22;218;51.902;9.542;2023-07-20T12:34:03;26.90;1.00
463;DHT22;218;51.902;9.542;2023-07-20T12:36:30;27.00;1.00
463;DHT22;218;51.902;9.542;2023-07-20T12:38:57;27.10;1.00
463;DHT22;218;51.902;9.542;2023-07-20T12:41:24;27.10;1.00
463;DHT22;218;51.902;9.542;2023-07-20T12:43:51;27.20;1.00
463;DHT22;218;51.902;9.542;2023-07-20T12:46:19;27.20;1.00
463;DHT22;218;51.902;9.542;2023-07-20T12:48:47;27.20;1.00
463;DHT22;218;51.902;9.542;2023-07-20T12:51:14;27.20;1.00
463;DHT22;218;51.902;9.542;2023-07-20T12:53:42;27.20;1.00
463;DHT22;218;51.902;9.542;2023-07-20T12:56:09;27.30;1.00
463;DHT22;218;51.902;9.542;2023-07-20T12:58:36;27.40;1.00
463;DHT22;218;51.902;9.542;2023-07-20T13:01:03;27.50;1.00
463;DHT22;218;51.902;9.542;2023-07-20T13:03:30;27.60;1.00
463;DHT22;218;51.902;9.542;2023-07-20T13:05:59;27.70;1.00
463;DHT22;218;51.902;9.542;2023-07-20T13:08:26;27.70;1.00
463;DHT22;218;51.902;9.542;2023-07-20T13:10:53;27.80;1.00
463;DHT22;218;51.902;9.542;2023-07-20T13:13:20;27.90;1.00
463;DHT22;218;51.902;9.542;2023-07-20T13:15:46;27.90;1.00
463;DHT22;218;51.902;9.542;2023-07-20T13:18:14;28.00;1.00
463;DHT22;218;51.902;9.542;2023-07-20T13:20:41;28.00;1.00
463;DHT22;218;51.902;9.542;2023-07-20T13:23:09;28.10;1.00
463;DHT22;218;51.902;9.542;2023-07-20T13:25:36;28.10;1.00
463;DHT22;218;51.902;9.542;2023-07-20T13:28:04;28.20;1.00
463;DHT22;218;51.902;9.542;2023-07-20T13:30:31;28.20;1.00
463;DHT22;218;51.902;9.542;2023-07-20T13:32:58;28.20;1.00
463;DHT22;218;51.902;9.542;2023-07-20T13:35:25;28.30;1.00
463;DHT22;218;51.902;9.542;2023-07-20T13:37:52;28.30;1.00
463;DHT22;218;51.902;9.542;2023-07-20T13:40:20;28.40;1.00
463;DHT22;218;51.902;9.542;2023-07-20T13:42:48;28.50;1.00
463;DHT22;218;51.902;9.542;2023-07-20T13:45:15;28.50;1.00
463;DHT22;218;51.902;9.542;2023-07-20T13:47:43;28.60;1.00
463;DHT22;218;51.902;9.542;2023-07-20T13:50:10;28.60;1.00
463;DHT22;218;51.902;9.542;2023-07-20T13:52:37;28.70;1.00
463;DHT22;218;51.902;9.542;2023-07-20T13:55:04;28.80;1.00
463;DHT22;218;51.902;9.542;2023-07-20T13:57:33;28.80;1.00
463;DHT22;218;51.902;9.542;2023-07-20T14:00:00;28.80;1.00
463;DHT22;218;51.902;9.542;2023-07-20T14:02:27;28.80;1.00
463;DHT22;218;51.902;9.542;2023-07-20T14:04:54;28.80;1.00
463;DHT22;218;51.902;9.542;2023-07-20T14:07:22;28.80;1.00
463;DHT22;218;51.902;9.542;2023-07-20T14:09:49;28.80;1.00
463;DHT22;218;51.902;9.542;2023-07-20T14:12:16;28.80;1.00
463;DHT22;218;51.902;9.542;2023-07-20T14:14:44;28.80;1.00
463;DHT22;218;51.902;9.542;2023-07-20T14:17:11;28.80;1.00
463;DHT22;218;51.902;9.542;2023-07-20T14:19:38;28.80;1.00
463;DHT22;218;51.902;9.542;2023-07-20T14:22:06;28.80;1.00
463;DHT22;218;51.902;9.542;2023-07-20T14:24:33;28.70;1.00
463;DHT22;218;51.902;9.542;2023-07-20T14:26:59;28.70;1.00
463;DHT22;218;51.902;9.542;2023-07-20T14:29:27;28.60;1.00
463;DHT22;218;51.902;9.542;2023-07-20T14:31:58;28.60;1.00
463;DHT22;218;51.902;9.542;2023-07-20T14:34:25;28.50;1.00
463;DHT22;218;51.902;9.542;2023-07-20T14:36:52;28.40;1.00
463;DHT22;218;51.902;9.542;2023-07-20T14:39:19;28.40;1.00
463;DHT22;218;51.902;9.542;2023-07-20T14:41:47;28.30;1.00
463;DHT22;218;51.902;9.542;2023-07-20T14:44:13;28.20;1.00
463;DHT22;218;51.902;9.542;2023-07-20T14:46:40;28.20;1.00
463;DHT22;218;51.902;9.542;2023-07-20T14:49:09;28.20;1.00
463;DHT22;218;51.902;9.542;2023-07-20T14:51:38;28.10;1.00
463;DHT22;218;51.902;9.542;2023-07-20T14:54:09;28.00;1.00
463;DHT22;218;51.902;9.542;2023-07-20T14:56:38;28.00;1.00
463;DHT22;218;51.902;9.542;2023-07-20T14:59:05;28.00;1.00
463;DHT22;218;51.902;9.542;2023-07-20T15:01:32;28.00;1.00
463;DHT22;218;51.902;9.542;2023-07-20T15:03:59;28.00;1.00
463;DHT22;218;51.902;9.542;2023-07-20T15:06:29;28.00;1.00
463;DHT22;218;51.902;9.542;2023-07-20T15:08:57;28.10;1.00
463;DHT22;218;51.902;9.542;2023-07-20T15:11:26;28.10;1.00
463;DHT22;218;51.902;9.542;2023-07-20T15:13:53;28.10;1.00
463;DHT22;218;51.902;9.542;2023-07-20T15:16:20;28.10;1.00
463;DHT22;218;51.902;9.542;2023-07-20T15:18:47;28.10;1.00
463;DHT22;218;51.902;9.542;2023-07-20T15:21:14;28.20;1.00
463;DHT22;218;51.902;9.542;2023-07-20T15:23:42;28.20;1.00
463;DHT22;218;51.902;9.542;2023-07-20T15:26:09;28.20;1.00
463;DHT22;218;51.902;9.542;2023-07-20T15:28:37;28.20;1.00
463;DHT22;218;51.902;9.542;2023-07-20T15:31:05;28.20;1.00
463;DHT22;218;51.902;9.542;2023-07-20T15:33:32;28.20;1.00
463;DHT22;218;51.902;9.542;2023-07-20T15:35:58;28.20;1.00
463;DHT22;218;51.902;9.542;2023-07-20T15:38:25;28.20;1.00
463;DHT22;218;51.902;9.542;2023-07-20T15:40:54;28.10;1.00
463;DHT22;218;51.902;9.542;2023-07-20T15:43:22;28.00;1.00
463;DHT22;218;51.902;9.542;2023-07-20T15:45:49;28.00;1.00
463;DHT22;218;51.902;9.542;2023-07-20T15:48:16;27.90;1.00
463;DHT22;218;51.902;9.542;2023-07-20T15:50:45;27.80;1.00
463;DHT22;218;51.902;9.542;2023-07-20T15:53:12;27.70;1.00
463;DHT22;218;51.902;9.542;2023-07-20T15:55:39;27.60;1.00
463;DHT22;218;51.902;9.542;2023-07-20T15:58:08;27.60;1.00
463;DHT22;218;51.902;9.542;2023-07-20T16:00:34;27.50;1.00
463;DHT22;218;51.902;9.542;2023-07-20T16:03:01;27.40;1.00
463;DHT22;218;51.902;9.542;2023-07-20T16:05:28;27.30;1.00
463;DHT22;218;51.902;9.542;2023-07-20T16:07:56;27.30;1.00
463;DHT22;218;51.902;9.542;2023-07-20T16:10:22;27.20;1.00
463;DHT22;218;51.902;9.542;2023-07-20T16:12:49;27.20;1.00
463;DHT22;218;51.902;9.542;2023-07-20T16:15:18;27.10;1.00
463;DHT22;218;51.902;9.542;2023-07-20T16:17:45;27.10;1.00
463;DHT22;218;51.902;9.542;2023-07-20T16:20:12;27.10;1.00
463;DHT22;218;51.902;9.542;2023-07-20T16:22:39;27.10;1.00
463;DHT22;218;51.902;9.542;2023-07-20T16:25:09;27.00;1.00
463;DHT22;218;51.902;9.542;2023-07-20T16:27:36;27.00;1.00
463;DHT22;218;51.902;9.542;2023-07-20T16:30:05;27.00;1.00
463;DHT22;218;51.902;9.542;2023-07-20T16:32:33;27.00;1.00
463;DHT22;218;51.902;9.542;2023-07-20T16:35:00;26.90;1.00
463;DHT22;218;51.902;9.542;2023-07-20T16:37:27;26.90;1.00
463;DHT22;218;51.902;9.542;2023-07-20T18:45:29;26.80;1.00
463;DHT22;218;51.902;9.542;2023-07-20T18:47:56;24.90;1.00
463;DHT22;218;51.902;9.542;2023-07-20T18:50:25;24.80;1.00
463;DHT22;218;51.902;9.542;2023-07-20T18:52:54;24.70;1.00
463;DHT22;218;51.902;9.542;2023-07-20T18:55:22;24.60;1.00
463;DHT22;218;51.902;9.542;2023-07-20T18:57:50;24.50;1.00
463;DHT22;218;51.902;9.542;2023-07-20T19:00:17;24.40;1.00
463;DHT22;218;51.902;9.542;2023-07-20T19:02:44;24.20;1.00
463;DHT22;218;51.902;9.542;2023-07-20T19:05:12;24.20;1.00
463;DHT22;218;51.902;9.542;2023-07-20T19:07:40;24.10;1.00
463;DHT22;218;51.902;9.542;2023-07-20T19:10:07;24.00;1.00
463;DHT22;218;51.902;9.542;2023-07-20T19:12:35;23.80;1.00
